Time;durP1;ratioP1;P1;durP2;ratioP2;P2;SDS_P1;SDS_P2;PMS_P1;PMS_P2;Temp;Humidity;BMP_temperature;BMP_pressure;BME280_temperature;BME280_humidity;BME280_pressure;Samples;Min_cycle;Max_cycle;Signal;HPM_P1;HPM_P2
2022/01/04 00:01:28;;;;;;;0.60;0.60;;;14.70;99.90;;;15.18;56.63;99899.19;4954702;28;96927;-46
2022/01/04 00:03:54;;;;;;;1.60;0.80;;;14.60;99.90;;;15.14;56.92;99899.50;4951536;28;103958;-45
2022/01/04 00:06:20;;;;;;;1.77;0.70;;;14.60;99.90;;;15.12;57.25;99896.94;4945518;28;98480;-45
2022/01/04 00:08:46;;;;;;;1.90;0.60;;;14.60;99.90;;;15.12;55.71;99888.97;4933259;28;97319;-50
2022/01/04 00:11:18;;;;;;;0.90;0.60;;;14.50;99.90;;;15.09;56.82;99889.19;4945290;28;98562;-44
2022/01/04 00:13:45;;;;;;;1.20;0.73;;;14.50;99.90;;;15.06;55.17;99884.09;4951454;28;97638;-49
2022/01/04 00:16:11;;;;;;;1.33;0.47;;;14.50;99.90;;;15.06;57.33;99884.09;4948022;28;98130;-50
2022/01/04 00:18:39;;;;;;;1.13;0.70;;;14.50;99.90;;;14.99;56.46;99882.78;4947463;28;98310;-47
2022/01/04 00:21:05;;;;;;;2.40;0.77;;;14.40;99.90;;;15.03;57.24;99868.34;4946796;28;97606;-45
2022/01/04 00:23:31;;;;;;;1.30;0.50;;;14.50;99.90;;;15.07;57.23;99867.19;4951675;28;97709;-49
2022/01/04 00:25:58;;;;;;;2.70;0.80;;;14.50;99.90;;;15.06;57.05;99867.31;4946327;28;97481;-53
2022/01/04 00:28:24;;;;;;;2.30;0.60;;;14.50;99.90;;;15.06;56.91;99862.84;4958379;28;99802;-45
2022/01/04 00:30:50;;;;;;;1.57;0.40;;;14.50;99.90;;;15.18;57.62;99848.72;4947583;28;97747;-48
2022/01/04 00:33:17;;;;;;;1.33;0.70;;;14.60;99.90;;;15.21;55.63;99849.50;4960135;28;100173;-51
2022/01/04 00:35:44;;;;;;;1.00;0.43;;;14.70;99.90;;;15.18;57.13;99840.75;4947288;28;97487;-48
2022/01/04 00:38:10;;;;;;;2.33;0.73;;;14.60;99.90;;;15.21;55.37;99831.75;4945993;28;98227;-50
2022/01/04 00:40:37;;;;;;;1.77;0.70;;;14.70;99.90;;;15.22;57.19;99827.28;4948079;28;100257;-46
2022/01/04 00:43:04;;;;;;;2.23;0.90;;;14.60;99.90;;;15.26;56.81;99831.41;4948368;28;99368;-47
2022/01/04 00:45:32;;;;;;;2.60;0.80;;;14.70;99.90;;;15.23;56.84;99815.69;4950328;28;98730;-48
2022/01/04 00:50:28;;;;;;;1.27;0.50;;;14.60;99.90;;;15.27;57.11;99806.56;4946214;28;98220;-51
2022/01/04 00:52:55;;;;;;;2.13;0.90;;;14.60;99.90;;;15.21;56.34;99812.31;4952038;28;98709;-50
2022/01/04 00:55:21;;;;;;;1.43;0.73;;;14.50;99.90;;;15.27;56.68;99806.56;4950491;28;98132;-49
2022/01/04 00:57:48;;;;;;;3.27;0.70;;;14.60;99.90;;;15.25;56.99;99798.69;4950817;28;97392;-48
2022/01/04 01:00:16;;;;;;;1.40;0.60;;;14.60;99.90;;;15.29;57.09;99799.31;4950067;28;98769;-49
2022/01/04 01:02:43;;;;;;;1.27;0.77;;;14.60;99.90;;;15.18;56.82;99792.94;4936975;28;99555;-50
2022/01/04 01:05:11;;;;;;;1.13;0.53;;;14.50;99.90;;;15.24;57.42;99791.69;4950163;28;98967;-47
2022/01/04 01:07:37;;;;;;;3.00;0.73;;;14.50;99.90;;;15.25;56.90;99792.53;4955387;28;97668;-52
2022/01/04 01:12:47;;;;;;;0.67;0.40;;;14.50;99.90;;;15.28;57.36;99771.91;4956548;28;96942;-49
2022/01/04 01:15:13;;;;;;;2.30;0.70;;;14.60;99.90;;;15.25;57.51;99771.28;4951515;28;98782;-47
2022/01/04 01:17:39;;;;;;;2.17;0.80;;;14.50;99.90;;;15.23;56.64;99759.91;4954283;28;97507;-50
2022/01/04 01:20:08;;;;;;;1.17;0.70;;;14.50;99.90;;;15.22;57.28;99755.56;4951001;28;97084;-45
2022/01/04 01:22:35;;;;;;;2.50;0.93;;;14.50;99.90;;;15.23;56.92;99747.47;4954601;28;97030;-51
2022/01/04 01:25:01;;;;;;;0.77;0.37;;;14.50;99.90;;;15.18;57.26;99750.44;4950393;28;98349;-47
2022/01/04 01:27:27;;;;;;;1.60;0.70;;;14.50;99.90;;;14.97;54.57;99751.91;4958004;28;99424;-45
2022/01/04 01:29:52;;;;;;;1.93;0.83;;;14.40;99.90;;;14.88;55.82;99737.44;4952101;28;99886;-45
2022/01/04 01:32:18;;;;;;;0.83;0.53;;;14.30;99.90;;;14.92;57.71;99737.25;4949396;28;97850;-50
2022/01/04 01:34:44;;;;;;;1.20;0.60;;;14.30;99.90;;;14.90;57.89;99732.06;4955422;28;98623;-46
2022/01/04 01:37:10;;;;;;;2.20;0.80;;;14.20;99.90;;;14.96;58.21;99739.59;4947386;28;99297;-47
2022/01/04 01:39:36;;;;;;;0.87;0.47;;;14.30;99.90;;;14.93;58.00;99745.13;4951703;28;97499;-45
2022/01/04 01:42:03;;;;;;;1.33;0.50;;;14.30;99.90;;;14.88;57.99;99736.59;4948692;28;98669;-47
2022/01/04 01:44:31;;;;;;;0.50;0.50;;;14.20;99.90;;;14.98;58.05;99732.38;4952314;28;98115;-48
2022/01/04 01:46:58;;;;;;;1.57;0.70;;;14.30;99.90;;;14.94;56.52;99722.91;4953285;28;100391;-51
2022/01/04 01:49:24;;;;;;;1.57;0.50;;;14.30;99.90;;;14.82;56.52;99721.09;4954015;28;103829;-47
2022/01/04 01:51:51;;;;;;;2.53;0.90;;;14.20;99.90;;;14.77;57.17;99725.88;4956234;28;98449;-47
2022/01/04 01:54:18;;;;;;;1.60;0.70;;;14.10;99.90;;;14.78;58.37;99723.13;4967210;28;96767;-46
2022/01/04 01:56:44;;;;;;;3.40;0.87;;;14.10;99.90;;;14.78;58.44;99722.28;4954879;28;98203;-51
2022/01/04 01:59:10;;;;;;;1.77;0.90;;;14.10;99.90;;;14.77;57.70;99724.06;4948167;28;99351;-48
2022/01/04 02:01:35;;;;;;;1.37;0.60;;;14.10;99.90;;;14.79;58.19;99710.69;4957523;28;98773;-46
2022/01/04 02:04:02;;;;;;;1.40;0.60;;;14.10;99.90;;;14.83;58.10;99702.41;4948479;28;98153;-47
2022/01/04 02:06:30;;;;;;;4.20;1.07;;;14.20;99.90;;;14.83;56.88;99702.41;4957580;28;100038;-49
2022/01/04 02:09:00;;;;;;;1.97;0.70;;;14.20;99.90;;;14.87;57.72;99708.34;4951853;28;98938;-50
2022/01/04 02:11:30;;;;;;;4.13;1.00;;;14.20;99.90;;;14.87;57.28;99698.56;4953948;28;98627;-45
2022/01/04 02:14:00;;;;;;;0.80;0.50;;;14.20;99.90;;;14.93;58.17;99694.69;4963035;28;97359;-52
2022/01/04 02:16:28;;;;;;;1.47;0.70;;;14.30;99.90;;;14.95;57.91;99695.41;4962097;28;97749;-46
2022/01/04 02:19:07;;;;;;;0.80;0.70;;;14.30;99.90;;;15.00;57.97;99692.44;4936091;28;102167;-50
2022/01/04 02:21:35;;;;;;;1.60;0.60;;;14.30;99.90;;;14.98;57.56;99683.72;4944581;28;97398;-50
2022/01/04 02:24:03;;;;;;;3.13;1.13;;;14.30;99.90;;;14.98;56.63;99684.56;4946852;28;100648;-46
2022/01/04 02:26:31;;;;;;;2.00;1.10;;;14.30;99.90;;;15.01;57.48;99684.34;4950565;28;97870;-48
2022/01/04 02:28:58;;;;;;;1.60;0.60;;;14.30;99.90;;;15.02;57.74;99683.41;4956924;28;96879;-50
2022/01/04 02:31:23;;;;;;;1.80;0.83;;;14.30;99.90;;;15.08;57.57;99675.03;4978905;28;96874;-46
2022/01/04 02:33:49;;;;;;;2.00;0.87;;;14.30;99.90;;;15.09;57.47;99671.41;4978104;28;97473;-45
2022/01/04 02:36:15;;;;;;;1.77;0.80;;;14.40;99.90;;;15.09;56.38;99671.41;4978560;28;106073;-48
2022/01/04 02:38:41;;;;;;;1.57;0.80;;;14.40;99.90;;;15.08;57.52;99669.72;4972269;28;97358;-47
2022/01/04 02:41:07;;;;;;;3.37;0.70;;;14.40;99.90;;;15.10;57.38;99665.13;4975356;28;97332;-47
2022/01/04 02:43:33;;;;;;;1.93;0.70;;;14.40;99.90;;;15.06;58.05;99666.31;4974576;28;97195;-47
2022/01/04 02:45:58;;;;;;;1.67;0.90;;;14.30;99.90;;;15.15;57.65;99660.34;4984459;28;96709;-46
2022/01/04 02:48:24;;;;;;;1.67;0.60;;;14.40;99.90;;;15.17;57.75;99657.56;4975257;28;97025;-45
2022/01/04 02:50:51;;;;;;;2.73;1.10;;;14.40;99.90;;;15.18;57.43;99654.81;4968590;28;97472;-49
2022/01/04 02:53:18;;;;;;;2.20;0.80;;;14.40;99.90;;;15.22;57.29;99650.16;4994547;28;96906;-45
2022/01/04 02:55:45;;;;;;;6.60;1.20;;;14.50;99.90;;;15.24;56.45;99655.34;4971207;28;97233;-52
2022/01/04 02:58:12;;;;;;;1.73;0.70;;;14.50;99.90;;;15.22;57.25;99659.94;4972699;28;103230;-46
2022/01/04 03:00:39;;;;;;;2.17;1.20;;;14.50;99.90;;;15.21;57.18;99659.09;4969917;28;98394;-47
2022/01/04 03:03:05;;;;;;;1.17;0.80;;;14.50;99.90;;;15.17;57.38;99653.09;4972951;28;97161;-45
2022/01/04 03:05:31;;;;;;;1.53;0.63;;;14.40;99.90;;;15.14;57.52;99657.78;4974606;28;96752;-45
2022/01/04 03:07:57;;;;;;;0.77;0.47;;;14.40;99.90;;;15.11;57.70;99645.59;4956146;28;97586;-49
2022/01/04 03:10:23;;;;;;;3.20;1.00;;;14.40;99.90;;;15.12;56.63;99647.28;4975829;28;97661;-45
2022/01/04 03:12:48;;;;;;;1.33;0.70;;;14.40;99.90;;;15.03;57.81;99637.28;4966584;28;98359;-47
2022/01/04 03:15:14;;;;;;;2.60;0.80;;;14.30;99.90;;;15.12;57.11;99641.97;4975341;28;97168;-47
2022/01/04 03:17:41;;;;;;;2.17;1.10;;;14.40;99.90;;;15.13;57.10;99637.50;4988436;28;98602;-47
2022/01/04 03:20:09;;;;;;;0.50;0.40;;;14.50;99.90;;;15.18;57.70;99630.06;4979170;28;96961;-52
2022/01/04 03:22:34;;;;;;;1.23;0.50;;;14.50;99.90;;;15.13;57.46;99619.75;4976425;28;98103;-46
2022/01/04 03:25:01;;;;;;;0.90;0.70;;;14.40;99.90;;;15.16;57.53;99619.53;4972674;28;96763;-46
2022/01/04 03:27:27;;;;;;;1.40;0.60;;;14.50;99.90;;;15.17;55.89;99610.63;4991631;28;98380;-47
2022/01/04 03:29:53;;;;;;;3.63;1.10;;;14.50;99.90;;;15.17;56.94;99600.00;4970057;28;97465;-49
2022/01/04 03:32:18;;;;;;;1.97;0.70;;;14.50;99.90;;;15.22;57.02;99596.19;4974710;28;96967;-47
2022/01/04 03:34:44;;;;;;;2.07;0.60;;;14.50;99.90;;;15.14;55.71;99592.25;4970932;28;96991;-52
2022/01/04 03:37:10;;;;;;;0.87;0.30;;;14.40;99.90;;;15.18;57.33;99577.78;4972780;28;104626;-50
2022/01/04 03:39:36;;;;;;;1.03;0.50;;;14.50;99.90;;;15.21;57.50;99570.56;4974251;28;97276;-48
2022/01/04 03:42:03;;;;;;;0.93;0.50;;;14.50;99.90;;;15.21;57.30;99558.16;4971926;28;97442;-48
2022/01/04 03:44:29;;;;;;;0.80;0.60;;;14.50;99.90;;;15.29;57.40;99554.91;4972534;28;97027;-45
2022/01/04 03:46:56;;;;;;;1.43;0.90;;;14.60;99.90;;;15.26;57.05;99555.16;4966678;28;109833;-51
2022/01/04 03:49:23;;;;;;;1.30;0.60;;;14.50;99.90;;;15.24;56.75;99551.75;4992462;28;98717;-48
2022/01/04 03:51:49;;;;;;;0.93;0.70;;;14.50;99.90;;;15.15;56.23;99543.47;4967160;28;96744;-47
2022/01/04 03:54:16;;;;;;;5.53;1.23;;;14.40;99.90;;;15.14;57.21;99541.78;4940713;28;96730;-47
2022/01/04 03:56:42;;;;;;;1.90;0.60;;;14.40;99.90;;;15.14;57.49;99531.16;4967645;28;99089;-50
2022/01/04 03:59:08;;;;;;;1.63;0.77;;;14.40;99.90;;;15.04;57.48;99531.91;4974874;28;96748;-50
2022/01/04 04:01:34;;;;;;;1.23;0.80;;;14.20;99.90;;;15.06;57.76;99517.59;4973696;28;99532;-45
2022/01/04 04:04:00;;;;;;;2.40;0.90;;;14.20;99.90;;;15.04;57.74;99508.88;4970657;28;97010;-49
2022/01/04 04:06:26;;;;;;;1.33;0.83;;;14.20;99.90;;;14.99;57.55;99497.75;4973272;28;98942;-50
2022/01/04 04:08:53;;;;;;;2.17;0.53;;;14.20;99.90;;;15.02;57.49;99499.31;4971185;28;105211;-45
2022/01/04 04:11:19;;;;;;;1.13;0.70;;;14.20;99.90;;;15.05;57.95;99494.66;4974575;28;98033;-48
2022/01/04 04:13:45;;;;;;;2.03;1.07;;;14.20;99.90;;;15.08;57.79;99489.13;4969436;28;97488;-54
2022/01/04 04:16:11;;;;;;;1.77;0.60;;;14.30;99.90;;;15.12;57.39;99484.44;4992344;28;98557;-49
2022/01/04 04:18:36;;;;;;;1.43;0.80;;;14.40;99.90;;;15.08;57.10;99478.50;4973581;28;96780;-47
2022/01/04 04:21:02;;;;;;;1.10;0.50;;;14.40;99.90;;;15.10;57.24;99476.56;4969250;28;97013;-51
2022/01/04 04:23:28;;;;;;;1.23;0.50;;;14.30;99.90;;;15.12;57.67;99472.00;4971544;28;97436;-47
2022/01/04 04:25:54;;;;;;;0.57;0.43;;;14.40;99.90;;;15.14;57.82;99464.75;4971264;28;97613;-46
2022/01/04 04:28:20;;;;;;;2.10;0.80;;;14.30;99.90;;;15.12;56.35;99460.53;4989553;28;99474;-46
2022/01/04 04:30:46;;;;;;;1.63;0.80;;;14.40;99.90;;;15.16;57.56;99464.66;4969556;28;97284;-47
2022/01/04 04:33:11;;;;;;;0.80;0.57;;;14.40;99.90;;;15.22;57.52;99460.72;4974530;28;96911;-45
2022/01/04 04:35:37;;;;;;;1.13;0.50;;;14.40;99.90;;;15.18;57.56;99457.41;4972464;28;99272;-48
2022/01/04 04:38:05;;;;;;;1.20;0.80;;;14.40;99.90;;;15.18;56.92;99458.25;4971205;28;97200;-45
2022/01/04 04:40:31;;;;;;;0.67;0.50;;;14.40;99.90;;;15.15;57.60;99453.19;4971987;28;97138;-46
2022/01/04 04:42:57;;;;;;;1.43;0.50;;;14.30;99.90;;;15.19;57.77;99435.22;4977066;28;97139;-48
2022/01/04 04:45:23;;;;;;;0.87;0.47;;;14.40;99.90;;;15.23;57.64;99425.22;4992305;28;99191;-45
2022/01/04 04:47:49;;;;;;;1.07;0.90;;;14.50;99.90;;;15.20;57.14;99428.09;4970158;28;97874;-47
2022/01/04 04:50:15;;;;;;;1.27;0.60;;;14.40;99.90;;;15.26;57.36;99427.63;4989900;28;97232;-50
2022/01/04 04:52:41;;;;;;;2.37;0.80;;;14.50;99.90;;;15.25;57.01;99420.63;4977973;28;97384;-47
2022/01/04 04:55:08;;;;;;;1.90;0.80;;;14.50;99.90;;;15.24;56.71;99414.47;4976731;28;99429;-48
2022/01/04 04:57:34;;;;;;;2.77;1.00;;;14.50;99.90;;;15.23;55.31;99425.22;4976529;28;97941;-45
2022/01/04 04:59:59;;;;;;;1.63;1.00;;;14.50;99.90;;;15.23;56.94;99403.97;4957852;28;98727;-50
2022/01/04 05:02:25;;;;;;;1.70;0.90;;;14.50;99.90;;;15.26;57.24;99406.38;4975050;28;101445;-45
2022/01/04 05:04:51;;;;;;;2.87;0.60;;;14.50;99.90;;;15.25;57.32;99404.69;4974923;28;100009;-48
2022/01/04 05:07:17;;;;;;;0.90;0.70;;;14.50;99.90;;;15.26;57.35;99409.88;4973230;28;112952;-50
2022/01/04 05:09:43;;;;;;;0.93;0.53;;;14.60;99.90;;;15.26;57.15;99411.69;4978178;28;97355;-49
2022/01/04 05:12:09;;;;;;;1.00;0.70;;;14.50;99.90;;;15.35;56.99;99405.72;4987108;28;97342;-45
2022/01/04 05:14:37;;;;;;;0.60;0.57;;;14.70;99.90;;;15.39;56.78;99412.47;4975839;28;97075;-46
2022/01/04 05:17:03;;;;;;;2.43;2.13;;;14.70;99.90;;;15.40;56.75;99411.50;4973679;28;99242;-46
2022/01/04 05:19:29;;;;;;;0.73;0.63;;;14.70;99.90;;;15.41;56.68;99405.25;4976023;28;97457;-50
2022/01/04 05:21:55;;;;;;;0.70;0.50;;;14.80;99.90;;;15.44;57.01;99411.16;4987729;28;96496;-48
2022/01/04 05:24:21;;;;;;;2.47;2.27;;;14.80;99.90;;;15.48;56.42;99395.84;4973720;28;96767;-50
2022/01/04 05:26:47;;;;;;;0.40;0.30;;;14.90;99.90;;;15.53;56.72;99392.84;4989205;28;99053;-49
2022/01/04 05:29:13;;;;;;;0.97;0.80;;;14.90;99.90;;;15.62;56.47;99398.34;4971629;28;97262;-49
2022/01/04 05:31:39;;;;;;;1.90;1.53;;;15.00;99.90;;;15.65;56.29;99392.78;4990595;28;97103;-49
2022/01/04 05:34:05;;;;;;;0.80;0.70;;;15.10;99.90;;;15.68;56.18;99392.56;4972653;28;97652;-50
2022/01/04 05:36:31;;;;;;;1.87;1.70;;;15.10;99.90;;;15.72;55.77;99387.84;4976994;28;99044;-51
2022/01/04 05:38:56;;;;;;;0.80;0.50;;;15.10;99.90;;;15.72;56.00;99393.16;4955646;28;97309;-47
2022/01/04 05:41:22;;;;;;;1.00;0.60;;;15.10;99.90;;;15.79;55.82;99396.22;4973618;28;97505;-46
2022/01/04 05:43:48;;;;;;;2.27;2.07;;;15.30;99.90;;;15.81;55.67;99386.28;4974962;28;96698;-44
2022/01/04 05:46:16;;;;;;;1.27;1.17;;;15.20;99.90;;;15.87;55.48;99385.81;4984344;28;96886;-48
2022/01/04 05:48:42;;;;;;;1.07;0.73;;;15.30;99.90;;;15.90;55.47;99386.41;4979191;28;96758;-50
2022/01/04 05:51:08;;;;;;;0.73;0.50;;;15.40;99.90;;;15.95;55.49;99380.75;4971475;28;96856;-47
2022/01/04 05:53:34;;;;;;;0.90;0.80;;;15.50;99.90;;;16.00;55.32;99376.75;4974808;28;107150;-50
2022/01/04 05:55:59;;;;;;;1.43;0.77;;;15.60;99.90;;;16.06;54.99;99376.31;4957221;28;99035;-46
2022/01/04 05:58:25;;;;;;;1.33;1.07;;;15.70;99.90;;;16.12;54.78;99374.13;4975733;28;97367;-46
2022/01/04 06:00:51;;;;;;;0.90;0.70;;;15.70;99.90;;;16.14;54.90;99373.03;4967240;28;96857;-47
2022/01/04 06:03:17;;;;;;;1.10;0.73;;;15.80;99.90;;;16.20;54.52;99372.56;4972966;28;97962;-46
2022/01/04 06:05:43;;;;;;;0.77;0.50;;;15.80;99.90;;;16.21;54.41;99368.94;4979686;28;97164;-49
2022/01/04 06:08:09;;;;;;;1.27;1.03;;;15.80;99.90;;;16.25;54.30;99365.03;4972271;28;101949;-48
2022/01/04 06:10:39;;;;;;;3.10;2.70;;;15.90;99.90;;;16.26;54.04;99372.06;4979363;28;97287;-47
2022/01/04 06:15:31;;;;;;;0.77;0.60;;;15.80;99.90;;;16.25;54.20;99354.41;4976090;28;101482;-47
2022/01/04 06:17:58;;;;;;;0.97;0.80;;;15.80;99.90;;;16.24;54.32;99347.38;4974575;28;96946;-46
2022/01/04 06:20:24;;;;;;;2.50;2.23;;;15.80;99.90;;;16.25;54.35;99345.56;4973920;28;97378;-46
2022/01/04 06:22:54;;;;;;;0.83;0.70;;;15.80;99.90;;;16.30;54.50;99349.56;4973005;28;98323;-47
2022/01/04 06:25:22;;;;;;;5.07;4.63;;;15.80;99.90;;;16.24;54.43;99343.88;4971968;28;97114;-47
2022/01/04 06:27:51;;;;;;;1.67;1.30;;;15.70;99.90;;;16.20;54.66;99340.63;4972061;28;96996;-46
2022/01/04 06:30:19;;;;;;;1.60;0.90;;;15.60;99.90;;;16.20;54.82;99335.31;4973908;28;97101;-47
2022/01/04 06:32:46;;;;;;;5.53;5.03;;;15.60;99.90;;;16.16;54.89;99354.28;4974724;28;99593;-49
2022/01/04 06:35:13;;;;;;;2.27;1.50;;;15.60;99.90;;;16.13;54.69;99352.72;4969882;28;102820;-47
2022/01/04 06:37:45;;;;;;;1.27;1.17;;;15.50;99.90;;;16.13;54.69;99346.53;4975609;28;97147;-45
2022/01/04 06:40:12;;;;;;;3.90;3.43;;;15.50;99.90;;;16.10;54.52;99344.97;4968289;28;97049;-45
2022/01/04 06:42:38;;;;;;;1.83;1.47;;;15.50;99.90;;;16.09;54.75;99337.97;4973696;28;100112;-48
2022/01/04 06:45:05;;;;;;;0.90;0.90;;;15.50;99.90;;;16.11;55.00;99327.22;4973863;28;98334;-47
2022/01/04 06:47:31;;;;;;;0.70;0.70;;;15.60;99.90;;;16.13;54.94;99327.94;4971362;28;97213;-45
2022/01/04 06:49:57;;;;;;;4.63;4.17;;;15.60;99.90;;;16.13;54.50;99327.94;4974699;28;96955;-47
2022/01/04 06:52:23;;;;;;;4.43;3.67;;;15.60;99.90;;;16.09;54.68;99331.81;4971003;28;96748;-49
2022/01/04 06:54:49;;;;;;;1.30;1.10;;;15.50;99.90;;;16.04;55.00;99318.84;4972262;28;106124;-45
2022/01/04 06:57:15;;;;;;;1.67;1.43;;;15.40;99.90;;;16.05;54.85;99320.53;4971548;28;97232;-48
2022/01/04 06:59:41;;;;;;;2.00;0.90;;;15.40;99.90;;;16.04;54.96;99321.50;4990175;28;96862;-48
2022/01/04 07:02:08;;;;;;;1.40;1.30;;;15.40;99.90;;;16.03;55.02;99315.34;4970063;28;97638;-45
2022/01/04 07:04:34;;;;;;;1.70;1.20;;;15.40;99.90;;;16.01;55.25;99308.47;4968281;28;96890;-46
2022/01/04 07:07:00;;;;;;;3.37;3.10;;;15.40;99.90;;;15.98;55.11;99303.41;4971992;28;97516;-46
2022/01/04 07:09:26;;;;;;;1.67;1.20;;;15.30;99.90;;;16.00;55.34;99301.44;4970659;28;98204;-48
2022/01/04 07:11:52;;;;;;;1.90;1.10;;;15.40;99.90;;;16.00;55.21;99296.97;4974635;28;97628;-50
2022/01/04 07:14:18;;;;;;;2.00;1.70;;;15.40;99.90;;;16.03;55.12;99295.88;4988074;28;99171;-50
2022/01/04 07:16:44;;;;;;;1.07;0.93;;;15.50;99.90;;;16.04;55.21;99298.41;4975868;28;97603;-49
2022/01/04 07:19:10;;;;;;;3.63;3.33;;;15.50;99.90;;;16.06;54.98;99301.81;4965031;28;97593;-46
2022/01/04 07:21:36;;;;;;;3.63;3.33;;;15.50;99.90;;;16.05;55.04;99296.59;4989071;28;97304;-45
2022/01/04 07:24:04;;;;;;;3.77;2.47;;;15.50;99.90;;;16.09;55.07;99298.06;4969519;28;100542;-48
2022/01/04 07:26:30;;;;;;;1.60;0.80;;;15.50;99.90;;;16.12;54.68;99289.84;4978928;28;96801;-50
2022/01/04 07:28:56;;;;;;;1.17;1.00;;;15.60;99.90;;;16.20;54.58;99295.41;4975162;28;96934;-49
2022/01/04 07:31:22;;;;;;;1.40;1.03;;;15.80;99.90;;;16.26;54.46;99289.59;4970672;28;98790;-49
2022/01/04 07:33:48;;;;;;;1.13;0.80;;;15.90;99.90;;;16.32;54.34;99297.06;4972311;28;97196;-50
2022/01/04 07:36:15;;;;;;;2.10;1.47;;;16.00;99.90;;;16.38;54.08;99294.88;4972975;28;96814;-48
2022/01/04 07:38:42;;;;;;;0.80;0.80;;;16.10;99.90;;;16.38;54.28;99294.88;4970756;28;97531;-48
2022/01/04 07:41:09;;;;;;;2.97;1.83;;;16.00;99.90;;;16.35;53.95;99296.84;4966725;28;97399;-49
2022/01/04 07:43:35;;;;;;;1.27;1.07;;;16.00;99.90;;;16.35;54.09;99296.00;4971839;28;97552;-48
2022/01/04 07:46:01;;;;;;;1.27;1.07;;;15.90;99.90;;;16.32;54.23;99299.72;4969487;28;97264;-50
2022/01/04 07:48:27;;;;;;;1.00;0.90;;;15.90;99.90;;;16.29;54.13;99301.78;4975334;28;102644;-48
2022/01/04 07:50:55;;;;;;;8.53;7.73;;;15.80;99.90;;;16.23;54.19;99303.13;4973058;28;97821;-46
2022/01/04 07:53:22;;;;;;;1.37;1.00;;;15.60;99.90;;;16.18;54.51;99299.97;4970686;28;97292;-45
2022/01/04 07:55:48;;;;;;;2.87;2.27;;;15.60;99.90;;;16.13;54.65;99296.84;4969914;28;97086;-51
2022/01/04 07:58:14;;;;;;;1.07;0.97;;;15.50;99.90;;;16.08;54.74;99288.41;4983665;28;97065;-48
2022/01/04 08:00:40;;;;;;;1.20;1.10;;;15.50;99.90;;;16.12;54.91;99292.50;4974859;28;97206;-50
2022/01/04 08:03:07;;;;;;;1.53;1.33;;;15.60;99.90;;;16.15;54.79;99291.41;4964188;28;97256;-48
2022/01/04 08:05:33;;;;;;;1.13;1.03;;;15.60;99.90;;;16.19;54.49;99282.19;4973692;28;97828;-46
2022/01/04 08:07:59;;;;;;;1.03;0.73;;;15.70;99.90;;;16.20;54.47;99291.88;4969304;28;97067;-51
2022/01/04 08:10:25;;;;;;;4.07;3.37;;;15.70;99.90;;;16.22;54.53;99290.81;4973263;28;97654;-50
2022/01/04 08:12:51;;;;;;;1.67;1.57;;;15.80;99.90;;;16.24;54.70;99294.19;4970002;28;98646;-47
2022/01/04 08:15:17;;;;;;;1.67;1.20;;;15.80;99.90;;;16.25;54.45;99287.88;4965832;28;97484;-48
2022/01/04 08:17:42;;;;;;;1.30;1.20;;;15.80;99.90;;;16.27;54.54;99293.94;4975795;28;98203;-47
2022/01/04 08:20:10;;;;;;;1.20;1.10;;;15.80;99.90;;;16.28;54.35;99287.63;4967471;28;97379;-50
2022/01/04 08:22:36;;;;;;;1.90;1.40;;;15.80;99.90;;;16.25;54.55;99285.22;4974070;28;98278;-50
2022/01/04 08:25:06;;;;;;;0.97;0.73;;;15.80;99.90;;;16.26;54.40;99286.91;4953718;28;102848;-45
2022/01/04 08:27:32;;;;;;;4.50;4.10;;;15.70;99.90;;;16.26;53.75;99276.28;4974160;28;97025;-46
2022/01/04 08:29:58;;;;;;;1.57;1.10;;;15.80;99.90;;;16.24;54.40;99280.03;4965629;28;97992;-50
2022/01/04 08:32:24;;;;;;;1.20;1.07;;;15.70;99.90;;;16.21;54.38;99278.47;4968885;28;97405;-45
2022/01/04 08:34:51;;;;;;;1.47;1.20;;;15.70;99.90;;;16.25;54.44;99274.59;4972846;28;97562;-46
2022/01/04 08:37:17;;;;;;;1.83;1.13;;;15.80;99.90;;;16.25;54.18;99269.28;4973136;28;97334;-49
2022/01/04 08:39:43;;;;;;;1.93;1.10;;;15.80;99.90;;;16.23;54.51;99265.06;4978201;28;98577;-47
2022/01/04 08:42:09;;;;;;;1.23;1.07;;;15.80;99.90;;;16.25;54.38;99257.78;4969401;28;98340;-49
2022/01/04 08:44:39;;;;;;;3.30;2.73;;;15.80;99.90;;;16.30;54.06;99251.09;4976707;28;97177;-46
2022/01/04 08:47:07;;;;;;;1.33;1.10;;;15.90;99.90;;;16.36;54.05;99244.47;4971264;28;96955;-46
2022/01/04 08:49:34;;;;;;;1.20;1.10;;;16.00;99.90;;;16.39;54.23;99248.69;4974852;28;97490;-46
2022/01/04 08:52:01;;;;;;;9.20;8.27;;;16.00;99.90;;;16.40;53.73;99255.69;4968120;28;99827;-46
2022/01/04 08:54:26;;;;;;;4.50;3.73;;;16.10;99.90;;;16.39;53.77;99254.84;4974403;28;96881;-45
2022/01/04 08:56:54;;;;;;;3.77;3.40;;;16.00;99.90;;;16.32;53.82;99262.47;4973629;28;96844;-45
2022/01/04 08:59:21;;;;;;;10.27;8.10;;;15.90;99.90;;;16.25;53.57;99257.78;4972298;28;96927;-48
2022/01/04 09:01:47;;;;;;;10.20;9.10;;;15.70;99.90;;;16.18;54.27;99272.53;4976905;28;99358;-50
2022/01/04 09:04:13;;;;;;;2.50;2.20;;;15.60;99.90;;;16.07;54.67;99276.06;4969540;28;97532;-49
2022/01/04 09:06:38;;;;;;;9.27;7.37;;;15.40;99.90;;;16.02;55.00;99270.25;4972103;28;96524;-49
2022/01/04 09:09:05;;;;;;;3.43;3.13;;;15.30;99.90;;;15.93;55.17;99273.66;4982230;28;98557;-46
2022/01/04 09:11:32;;;;;;;4.03;2.50;;;15.30;99.90;;;15.86;55.64;99280.44;4974408;28;99177;-49
2022/01/04 09:14:43;;;;;;;4.33;3.37;;;15.10;99.90;;;15.83;55.49;99267.38;4970827;28;96859;-46
2022/01/04 09:19:32;;;;;;;7.07;5.83;;;15.10;99.90;;;15.77;55.57;99290.84;4970044;28;100392;-46
2022/01/04 09:21:58;;;;;;;4.13;3.07;;;15.10;99.90;;;15.76;55.62;99294.44;4969701;28;99062;-47
2022/01/04 09:24:24;;;;;;;10.27;8.13;;;15.10;99.90;;;15.75;55.18;99306.03;4976729;28;96958;-49
2022/01/04 09:26:51;;;;;;;7.10;6.13;;;15.10;99.90;;;15.73;55.52;99305.31;4967669;28;97075;-46
2022/01/04 09:29:21;;;;;;;8.23;7.07;;;15.00;99.90;;;15.74;55.88;99317.63;4979809;28;98692;-49
2022/01/04 09:31:49;;;;;;;10.87;6.43;;;15.10;99.90;;;15.77;55.81;99322.75;4975069;28;98366;-52
2022/01/04 09:34:16;;;;;;;9.10;6.23;;;15.20;99.90;;;15.78;53.63;99318.25;4975799;28;96840;-47
2022/01/04 09:36:43;;;;;;;2.53;1.80;;;15.30;99.90;;;15.84;55.62;99312.47;4969112;28;97321;-47
2022/01/04 09:39:15;;;;;;;7.07;4.10;;;15.40;99.90;;;15.89;53.55;99296.97;4973279;28;97638;-45
2022/01/04 09:41:43;;;;;;;2.90;1.30;;;15.50;99.90;;;15.83;55.39;99268.22;4967593;28;97103;-47
2022/01/04 09:44:10;;;;;;;6.53;4.97;;;15.40;99.90;;;15.84;55.42;99255.78;4952184;28;97536;-49
2022/01/04 09:46:37;;;;;;;5.20;3.63;;;15.40;99.90;;;15.81;55.67;99264.00;4960281;28;97029;-52
2022/01/04 09:49:03;;;;;;;5.83;5.20;;;15.30;99.90;;;15.83;55.78;99272.69;4953085;28;97209;-51
2022/01/04 09:51:31;;;;;;;6.47;4.70;;;15.30;99.90;;;15.87;55.42;99301.56;4958790;28;100003;-44
2022/01/04 09:53:57;;;;;;;2.17;1.70;;;15.30;99.90;;;15.89;55.38;99298.78;4951082;28;99022;-51
2022/01/04 09:56:23;;;;;;;4.13;3.70;;;15.30;99.90;;;15.88;55.43;99305.06;4958881;28;99176;-48
2022/01/04 09:58:49;;;;;;;2.33;2.07;;;15.30;99.90;;;15.83;55.72;99304.59;4952233;28;98393;-51
2022/01/04 10:01:41;;;;;;;6.80;5.40;;;15.20;99.90;;;15.81;55.56;99295.91;4958260;28;96940;-46
2022/01/04 10:04:08;;;;;;;9.67;5.63;;;15.20;99.90;;;15.72;55.50;99294.81;4950825;28;97413;-51
2022/01/04 10:06:37;;;;;;;9.10;6.93;;;15.00;99.90;;;15.64;55.63;99284.78;4939150;28;97325;-47
2022/01/04 10:09:11;;;;;;;5.33;4.50;;;14.90;99.90;;;15.59;56.24;99280.75;4949768;28;97913;-48
2022/01/04 10:11:47;;;;;;;7.20;4.77;;;14.80;99.90;;;15.50;55.87;99277.00;4955135;28;97251;-48
2022/01/04 10:14:29;;;;;;;3.80;2.50;;;14.70;99.90;;;15.51;54.37;99261.91;4953249;28;97316;-50
2022/01/04 10:17:02;;;;;;;2.90;2.60;;;14.80;99.90;;;15.47;56.67;99253.31;4943218;28;97417;-51
2022/01/04 10:19:33;;;;;;;7.80;4.77;;;14.70;99.90;;;15.40;56.07;99270.72;4955002;28;97868;-50
2022/01/04 10:22:24;;;;;;;4.37;3.37;;;14.60;99.90;;;15.45;56.83;99277.34;4950144;28;97577;-47
2022/01/04 10:25:15;;;;;;;14.00;7.50;;;14.70;99.90;;;15.53;55.70;99282.06;4952222;28;97725;-46
2022/01/04 10:27:46;;;;;;;6.13;4.10;;;15.00;99.90;;;15.46;55.18;99286.16;4956481;28;98399;-51